Time;durP1;ratioP1;P1;durP2;ratioP2;P2;SDS_P1;SDS_P2;PMS_P1;PMS_P2;Temp;Humidity;BMP_temperature;BMP_pressure;BME280_temperature;BME280_humidity;BME280_pressure;Samples;Min_cycle;Max_cycle;Signal;HPM_P1;HPM_P2
2022/01/31 00:03:43;;;;;;;14.18;3.78;;;;;;;3.89;47.35;97483.66;10374123;28;20060;-59
2022/01/31 00:08:42;;;;;;;11.93;4.00;;;;;;;3.80;46.83;97490.34;10374261;28;20024;-59
2022/01/31 00:13:45;;;;;;;;;;;;;;;3.88;46.24;97499.91;10376076;28;20060;-59
2022/01/31 00:18:44;;;;;;;13.30;4.18;;;;;;;3.70;45.93;97500.34;10374385;28;19952;-59
2022/01/31 00:23:43;;;;;;;18.23;5.20;;;;;;;3.58;47.72;97501.81;10374579;28;20060;-59
2022/01/31 00:28:42;;;;;;;12.43;5.68;;;;;;;3.50;48.40;97499.94;10374438;28;20116;-59
2022/01/31 00:33:41;;;;;;;17.23;5.90;;;;;;;3.27;48.49;97463.50;10373770;28;20060;-59
2022/01/31 00:38:40;;;;;;;12.93;4.30;;;;;;;3.36;47.74;97513.28;10373554;28;20598;-59
2022/01/31 00:43:40;;;;;;;10.55;3.33;;;;;;;3.07;46.42;97502.31;10373804;28;20520;-59
2022/01/31 00:48:45;;;;;;;13.43;3.00;;;;;;;3.45;45.50;97512.66;10372426;28;20087;-59
2022/01/31 00:53:44;;;;;;;11.55;2.25;;;;;;;3.40;44.98;97525.38;10372722;28;20063;-59
2022/01/31 00:58:43;;;;;;;12.15;2.50;;;;;;;3.57;44.74;97530.03;10373483;28;20064;-59
2022/01/31 01:03:42;;;;;;;10.68;2.78;;;;;;;3.55;46.53;97521.41;10372632;28;20080;-59
2022/01/31 01:08:41;;;;;;;12.52;3.40;;;;;;;3.61;48.14;97516.41;10372503;28;20120;-59
2022/01/31 01:13:40;;;;;;;9.18;3.28;;;;;;;3.48;46.26;97509.28;10372869;28;20420;-59
2022/01/31 01:18:39;;;;;;;10.00;2.70;;;;;;;3.51;45.49;97507.63;10371926;28;20140;-59
2022/01/31 01:23:38;;;;;;;11.52;4.22;;;;;;;3.51;46.19;97499.94;10372311;28;20129;-59
2022/01/31 01:28:37;;;;;;;7.93;3.72;;;;;;;3.42;46.45;97492.94;10373030;28;20068;-59
2022/01/31 01:33:39;;;;;;;10.70;2.47;;;;;;;3.27;45.16;97469.47;10371974;28;20067;-59
2022/01/31 01:38:38;;;;;;;9.05;2.40;;;;;;;3.44;44.26;97475.84;10372288;28;20069;-59
2022/01/31 01:43:38;;;;;;;9.50;2.60;;;;;;;3.46;44.35;97486.16;10370610;28;20077;-59
2022/01/31 01:48:37;;;;;;;12.30;3.65;;;;;;;3.26;44.66;97461.75;10372477;28;20061;-59
2022/01/31 01:53:36;;;;;;;8.45;2.72;;;;;;;3.61;44.53;97491.63;10371709;28;20072;-59
2022/01/31 01:58:41;;;;;;;10.88;3.35;;;;;;;3.51;45.43;97499.09;10372134;28;20052;-59
2022/01/31 02:03:40;;;;;;;16.45;6.75;;;;;;;3.52;48.02;97500.81;10379798;28;20080;-59
2022/01/31 02:08:43;;;;;;;15.35;5.85;;;;;;;3.38;49.54;97488.56;10378593;28;20520;-59
2022/01/31 02:13:42;;;;;;;15.32;3.95;;;;;;;3.37;49.10;97501.34;10379630;28;20079;-59
2022/01/31 02:18:48;;;;;;;11.32;2.95;;;;;;;3.18;48.27;97515.41;10379508;28;20079;-59
2022/01/31 02:23:48;;;;;;;11.80;2.33;;;;;;;3.23;47.05;97501.00;10378854;28;20416;-59
2022/01/31 02:28:47;;;;;;;9.52;2.50;;;;;;;3.36;46.30;97507.31;10378819;28;20476;-59
2022/01/31 02:33:46;;;;;;;14.95;5.10;;;;;;;3.46;47.56;97505.81;10378567;28;20411;-59
2022/01/31 02:38:45;;;;;;;14.60;6.20;;;;;;;3.51;50.47;97511.91;10378075;28;20144;-59
2022/01/31 02:43:50;;;;;;;14.05;5.45;;;;;;;3.02;50.90;97456.06;10378118;28;20033;-59
2022/01/31 02:48:51;;;;;;;13.90;5.68;;;;;;;3.32;51.78;97523.44;10377885;28;20064;-59
2022/01/31 02:53:50;;;;;;;16.60;7.15;;;;;;;3.29;52.42;97526.81;10377331;28;20534;-59
2022/01/31 02:58:49;;;;;;;19.70;5.63;;;;;;;2.78;52.18;97435.00;10375671;28;20049;-59
2022/01/31 03:03:48;;;;;;;15.68;5.78;;;;;;;3.22;52.65;97523.22;10377554;28;20430;-59
2022/01/31 03:08:47;;;;;;;17.70;5.30;;;;;;;3.11;53.68;97534.91;10377288;28;20028;-59
2022/01/31 03:13:46;;;;;;;12.95;4.80;;;;;;;3.09;53.63;97525.44;10375818;28;20575;-59
2022/01/31 03:18:45;;;;;;;12.15;4.93;;;;;;;3.06;53.93;97536.50;10375706;28;20570;-59
2022/01/31 03:23:46;;;;;;;20.80;5.40;;;;;;;2.97;54.11;97541.38;10376935;28;20451;-59
2022/01/31 03:28:45;;;;;;;15.45;5.43;;;;;;;2.89;54.77;97538.66;10376418;28;20060;-59
2022/01/31 03:33:46;;;;;;;17.27;4.82;;;;;;;2.72;55.15;97542.44;10377077;28;20112;-59
2022/01/31 03:38:45;;;;;;;20.42;5.75;;;;;;;2.75;54.86;97545.09;10375479;28;20479;-59
2022/01/31 03:43:44;;;;;;;15.80;4.50;;;;;;;2.66;54.45;97545.72;10374496;28;20114;-59
2022/01/31 03:48:45;;;;;;;17.10;6.05;;;;;;;2.55;54.80;97549.69;10375357;28;20510;-59
2022/01/31 03:53:44;;;;;;;21.48;6.43;;;;;;;2.63;54.04;97545.66;10374950;28;20500;-59
2022/01/31 03:58:43;;;;;;;17.88;4.15;;;;;;;2.66;53.07;97542.31;10374964;28;20511;-59
2022/01/31 04:03:42;;;;;;;12.23;4.10;;;;;;;2.19;51.99;97459.94;10375132;28;20603;-59
2022/01/31 04:08:41;;;;;;;14.60;4.25;;;;;;;2.79;51.19;97534.09;10374662;28;20771;-59
2022/01/31 04:13:40;;;;;;;22.38;4.93;;;;;;;2.80;51.77;97548.66;10374358;28;20060;-59
2022/01/31 04:18:39;;;;;;;16.02;6.38;;;;;;;2.38;52.18;97504.00;10374635;28;20041;-59
2022/01/31 04:23:38;;;;;;;22.75;6.50;;;;;;;2.48;52.31;97510.22;10373177;28;20112;-59
2022/01/31 04:28:45;;;;;;;23.83;6.97;;;;;;;2.85;52.69;97556.47;10374001;28;20032;-59
2022/01/31 04:33:45;;;;;;;15.57;5.28;;;;;;;2.86;52.31;97576.97;10373933;28;20140;-59
2022/01/31 04:38:45;;;;;;;;;;;;;;;2.82;52.86;97577.75;10374153;28;20061;-59
2022/01/31 04:43:46;;;;;;;17.27;5.57;;;;;;;2.44;53.05;97517.78;10373139;28;19955;-59
2022/01/31 04:48:45;;;;;;;17.77;5.75;;;;;;;2.68;52.92;97574.81;10373202;28;20309;-59
2022/01/31 04:53:44;;;;;;;17.45;5.20;;;;;;;2.15;52.91;97490.56;10373492;28;20083;-59
2022/01/31 04:58:43;;;;;;;15.35;6.18;;;;;;;2.50;53.62;97558.94;10371727;28;20134;-59
2022/01/31 05:03:44;;;;;;;23.42;6.82;;;;;;;2.39;53.33;97535.59;10372005;28;20057;-59
2022/01/31 05:08:44;;;;;;;17.25;5.00;;;;;;;2.24;53.50;97535.19;10373275;28;20064;-59
2022/01/31 05:13:43;;;;;;;24.13;5.50;;;;;;;2.06;53.38;97540.63;10372617;28;20060;-59
2022/01/31 05:18:44;;;;;;;18.90;4.47;;;;;;;1.93;53.35;97536.88;10372341;28;20073;-59
2022/01/31 05:23:44;;;;;;;12.82;4.22;;;;;;;1.73;53.80;97537.13;10372760;28;20071;-59
2022/01/31 05:28:43;;;;;;;16.83;5.97;;;;;;;1.52;54.19;97536.47;10372261;28;20060;-59
2022/01/31 05:33:42;;;;;;;19.63;7.05;;;;;;;1.38;54.54;97548.81;10372966;28;20052;-59
2022/01/31 05:38:41;;;;;;;17.10;6.00;;;;;;;1.21;55.10;97545.72;10373779;28;20041;-59
2022/01/31 05:43:40;;;;;;;27.67;6.30;;;;;;;1.15;55.16;97549.78;10379548;28;20060;-59
2022/01/31 05:48:39;;;;;;;18.23;5.55;;;;;;;0.08;55.38;97388.75;10377279;28;20073;-59
2022/01/31 05:53:38;;;;;;;19.88;5.05;;;;;;;1.06;55.38;97546.13;10380528;28;20060;-59
2022/01/31 05:58:37;;;;;;;22.55;5.60;;;;;;;0.90;55.70;97508.97;10373219;28;20120;-59
2022/01/31 06:03:38;;;;;;;20.63;8.35;;;;;;;0.96;55.25;97530.41;10377867;28;20045;-59
2022/01/31 06:08:36;;;;;;;18.60;6.93;;;;;;;1.04;55.13;97542.63;10376609;28;20060;-59
2022/01/31 06:13:35;;;;;;;17.92;6.53;;;;;;;0.81;55.08;97515.47;10379039;28;20029;-59
2022/01/31 06:18:36;;;;;;;14.95;5.18;;;;;;;0.72;55.34;97495.59;10378425;28;20527;-59
2022/01/31 06:23:34;;;;;;;12.88;4.93;;;;;;;0.88;54.98;97496.97;10377515;28;20060;-59
2022/01/31 06:28:33;;;;;;;23.85;6.28;;;;;;;1.11;54.91;97538.59;10378633;28;20028;-59
2022/01/31 06:33:33;;;;;;;14.05;5.60;;;;;;;1.19;54.41;97537.16;10376334;28;20129;-59
2022/01/31 06:38:32;;;;;;;14.75;5.28;;;;;;;1.27;54.17;97534.81;10374830;28;20060;-59
2022/01/31 06:43:31;;;;;;;13.18;4.47;;;;;;;1.09;53.79;97492.53;10374982;28;20496;-59
2022/01/31 06:48:30;;;;;;;16.08;5.28;;;;;;;1.33;52.84;97528.22;10342485;28;20136;-59
2022/01/31 06:53:29;;;;;;;11.20;4.72;;;;;;;1.13;52.47;97472.19;10373712;28;20033;-59
2022/01/31 06:58:28;;;;;;;18.27;4.90;;;;;;;1.55;52.44;97510.97;10357772;28;20073;-59
2022/01/31 07:03:27;;;;;;;11.75;4.43;;;;;;;1.60;52.40;97509.47;10352554;28;20648;-59
2022/01/31 07:08:26;;;;;;;10.63;4.22;;;;;;;1.56;51.85;97471.81;10373660;28;20020;-59
2022/01/31 07:18:24;;;;;;;10.32;4.18;;;;;;;1.86;51.07;97497.44;10374875;28;20099;-59
2022/01/31 07:23:28;;;;;;;10.70;4.65;;;;;;;1.82;50.25;97479.38;10375218;28;20029;-59
2022/01/31 07:28:27;;;;;;;14.45;4.50;;;;;;;2.12;50.34;97495.59;10355921;28;20194;-59
2022/01/31 07:33:26;;;;;;;15.52;4.90;;;;;;;2.21;49.92;97501.78;10343641;28;20377;-59
2022/01/31 07:38:25;;;;;;;12.27;4.60;;;;;;;2.24;49.49;97489.09;10374983;28;20068;-59
2022/01/31 07:43:24;;;;;;;16.58;5.13;;;;;;;2.29;48.85;97479.84;10374825;28;20025;-59
2022/01/31 07:48:27;;;;;;;12.95;4.63;;;;;;;1.92;49.01;97414.84;10374356;28;20067;-59
2022/01/31 07:53:26;;;;;;;12.65;3.55;;;;;;;2.29;48.56;97469.59;10374119;28;20060;-59
2022/01/31 07:58:25;;;;;;;16.65;4.88;;;;;;;2.32;48.46;97438.94;10375083;28;20412;-59
2022/01/31 08:03:24;;;;;;;11.50;3.85;;;;;;;2.58;48.29;97466.13;10374114;28;20114;-59
2022/01/31 08:08:24;;;;;;;19.45;5.03;;;;;;;2.52;48.18;97437.78;10375087;28;20031;-59
2022/01/31 08:13:25;;;;;;;9.30;3.30;;;;;;;2.75;47.38;97468.25;10374179;28;20491;-59
2022/01/31 08:18:24;;;;;;;9.70;3.85;;;;;;;2.90;47.20;97468.59;10375102;28;20064;-59
2022/01/31 08:23:23;;;;;;;11.63;4.43;;;;;;;2.71;46.28;97426.28;10374913;28;20119;-59
2022/01/31 08:28:32;;;;;;;15.88;5.60;;;;;;;2.97;47.16;97434.59;10363676;28;20401;-59
2022/01/31 08:38:38;;;;;;;13.32;3.85;;;;;;;3.29;45.41;97444.75;10373356;28;20064;-59
2022/01/31 08:43:38;;;;;;;15.23;6.03;;;;;;;3.39;44.75;97438.97;10373088;28;20053;-59
2022/01/31 08:48:38;;;;;;;18.80;7.25;;;;;;;3.58;44.84;97444.50;10373747;28;20060;-59
2022/01/31 08:53:37;;;;;;;19.27;7.68;;;;;;;3.67;45.17;97439.56;10373519;28;20075;-59
2022/01/31 08:58:42;;;;;;;13.65;5.53;;;;;;;3.64;44.16;97432.69;10373447;28;20072;-59
2022/01/31 09:03:54;;;;;;;10.52;4.10;;;;;;;3.42;43.42;97374.06;10373089;28;20115;-59
2022/01/31 09:08:53;;;;;;;9.00;3.67;;;;;;;3.91;42.78;97428.06;10372856;28;20469;-62
2022/01/31 09:13:52;;;;;;;10.13;4.35;;;;;;;4.03;42.14;97418.94;10371929;28;20441;-59
2022/01/31 09:18:51;;;;;;;7.78;3.08;;;;;;;4.10;41.72;97407.03;10372440;28;20048;-59
2022/01/31 09:23:53;;;;;;;7.65;3.60;;;;;;;4.19;42.05;97396.94;10372660;28;20053;-59
2022/01/31 09:28:52;;;;;;;18.55;4.78;;;;;;;4.28;40.76;97376.56;10372432;28;20060;-60
2022/01/31 09:33:52;;;;;;;9.82;3.40;;;;;;;4.03;39.92;97310.22;10371912;28;20064;-59
2022/01/31 09:38:51;;;;;;;11.35;3.63;;;;;;;4.44;39.87;97349.44;10372199;28;20056;-59
2022/01/31 09:48:51;;;;;;;14.45;5.30;;;;;;;4.84;40.11;97331.22;10372796;28;20025;-59
2022/01/31 09:54:02;;;;;;;16.05;4.75;;;;;;;4.83;39.87;97306.34;10372096;28;20064;-59
2022/01/31 09:59:03;;;;;;;10.77;4.70;;;;;;;5.10;39.21;97322.19;10372488;28;20065;-59
2022/01/31 10:04:30;;;;;;;13.27;4.45;;;;;;;5.15;38.70;97301.66;10371533;28;20080;-59
2022/01/31 10:09:31;;;;;;;10.85;4.78;;;;;;;5.22;38.38;97287.19;10369516;28;20091;-59
2022/01/31 10:20:17;;;;;;;23.85;7.53;;;;;;;5.36;38.03;97272.78;10373272;28;20519;-59
2022/01/31 10:25:18;;;;;;;14.98;4.68;;;;;;;5.34;38.47;97249.63;10379006;28;20079;-59
2022/01/31 10:30:20;;;;;;;12.13;4.68;;;;;;;5.25;38.94;97253.78;10379118;28;20067;-58
2022/01/31 10:35:22;;;;;;;12.93;4.43;;;;;;;5.17;38.76;97239.97;10378488;28;20064;-60
2022/01/31 10:51:52;;;;;;;12.30;3.50;;;;;;;5.12;38.74;97185.91;10356662;28;20797;-58
2022/01/31 10:56:22;;;;;;;12.10;4.93;;;;;;;5.19;38.05;97185.13;10377919;28;20072;-60
2022/01/31 11:01:22;;;;;;;10.77;3.60;;;;;;;5.30;38.41;97174.97;10377561;28;20456;-58
2022/01/31 11:06:23;;;;;;;9.70;3.35;;;;;;;5.29;37.98;97157.78;10377794;28;20088;-58
2022/01/31 11:11:22;;;;;;;9.50;3.65;;;;;;;5.54;38.55;97170.03;10377473;28;20067;-57
2022/01/31 11:16:23;;;;;;;11.80;3.65;;;;;;;5.68;38.16;97151.31;10375762;28;20068;-58
2022/01/31 11:21:28;;;;;;;9.45;3.95;;;;;;;5.50;37.43;97121.09;10376933;28;20076;-58
2022/01/31 11:26:35;;;;;;;7.32;3.33;;;;;;;5.18;37.22;97059.06;10376130;28;20060;-59
2022/01/31 11:31:37;;;;;;;9.55;3.30;;;;;;;5.71;36.51;97135.88;10374502;28;20138;-58
2022/01/31 11:36:39;;;;;;;12.93;3.60;;;;;;;5.71;37.07;97115.28;10376689;28;20064;-58
2022/01/31 11:41:58;;;;;;;10.80;3.55;;;;;;;5.93;37.34;97105.97;10376034;28;20065;-58
2022/01/31 11:47:03;;;;;;;11.20;3.53;;;;;;;6.02;37.08;97111.19;10372371;28;20067;-59
2022/01/31 11:52:02;;;;;;;14.27;4.45;;;;;;;6.13;37.54;97100.97;10375059;28;20099;-58
2022/01/31 11:57:12;;;;;;;11.60;3.90;;;;;;;6.12;36.70;97092.38;10375162;28;20507;-58
2022/01/31 12:02:15;;;;;;;20.00;4.60;;;;;;;6.17;37.55;97105.31;10376042;28;20073;-58
2022/01/31 12:07:39;;;;;;;14.55;5.50;;;;;;;6.15;36.60;97092.41;10375249;28;20092;-58
2022/01/31 12:12:54;;;;;;;10.35;3.33;;;;;;;6.00;37.18;97045.97;10375000;28;20060;-59
2022/01/31 12:18:21;;;;;;;11.40;3.20;;;;;;;6.19;36.49;97070.09;10375011;28;20488;-58
2022/01/31 12:23:22;;;;;;;8.88;3.10;;;;;;;5.78;36.29;96972.88;10375245;28;20068;-58
2022/01/31 12:28:36;;;;;;;12.15;3.60;;;;;;;6.12;36.00;97009.97;10374540;28;20064;-58
2022/01/31 12:33:44;;;;;;;11.38;4.07;;;;;;;6.36;35.50;97045.28;10375279;28;20069;-58
2022/01/31 12:38:43;;;;;;;12.70;3.30;;;;;;;6.50;35.68;97041.91;10374321;28;20064;-58
2022/01/31 12:48:42;;;;;;;7.65;2.70;;;;;;;6.64;34.99;97016.16;10373638;28;20492;-58
2022/01/31 12:53:46;;;;;;;11.32;3.92;;;;;;;6.81;35.22;97035.09;10373894;28;20064;-58
2022/01/31 12:58:51;;;;;;;11.90;4.18;;;;;;;6.83;35.39;97011.03;10373360;28;20346;-57
2022/01/31 13:03:53;;;;;;;11.27;3.78;;;;;;;7.14;35.48;97025.69;10373063;28;20080;-58
2022/01/31 13:08:53;;;;;;;10.32;3.83;;;;;;;7.21;34.50;97024.84;10373308;28;20464;-58
2022/01/31 13:14:00;;;;;;;;;;;;;;;7.21;33.81;97007.63;10373530;28;20071;-58
2022/01/31 13:18:59;;;;;;;12.80;3.60;;;;;;;7.20;34.05;97005.91;10373364;28;20392;-58
2022/01/31 13:23:58;;;;;;;14.70;3.60;;;;;;;7.21;35.05;96997.31;10372851;28;20061;-58
2022/01/31 13:28:57;;;;;;;12.88;4.00;;;;;;;7.34;34.90;96999.91;10372870;28;20041;-58
2022/01/31 13:34:00;;;;;;;8.82;3.10;;;;;;;7.27;35.12;96991.31;10373010;28;20026;-58
2022/01/31 13:38:59;;;;;;;9.18;2.63;;;;;;;7.19;34.67;96967.19;10372771;28;20064;-58
2022/01/31 13:44:03;;;;;;;8.63;2.75;;;;;;;6.98;35.00;96979.25;10372777;28;20073;-59
2022/01/31 13:54:09;;;;;;;8.20;3.05;;;;;;;6.82;35.32;96968.06;10373424;28;20496;-58
2022/01/31 13:59:09;;;;;;;8.80;2.95;;;;;;;6.69;34.56;96930.22;10380465;28;20293;-58
2022/01/31 14:04:10;;;;;;;8.35;3.15;;;;;;;6.66;34.81;96940.53;10363522;28;20488;-58
2022/01/31 14:09:10;;;;;;;8.90;3.47;;;;;;;6.66;35.60;96932.81;10380041;28;20073;-60
2022/01/31 14:14:11;;;;;;;9.00;3.00;;;;;;;6.53;35.52;96934.50;10380053;28;20064;-58
2022/01/31 14:19:12;;;;;;;11.48;3.72;;;;;;;6.60;35.61;96937.94;10379652;28;20068;-58
2022/01/31 14:24:17;;;;;;;11.10;3.80;;;;;;;6.38;35.54;96935.34;10379216;28;20075;-57
2022/01/31 14:29:17;;;;;;;8.30;3.25;;;;;;;5.83;36.02;96860.47;10373768;28;20488;-58
2022/01/31 14:34:26;;;;;;;9.02;3.30;;;;;;;6.00;35.65;96908.59;10358420;28;20069;-60
2022/01/31 14:39:34;;;;;;;9.18;3.72;;;;;;;6.00;36.21;96918.88;10337793;28;20485;-58
2022/01/31 14:50:03;;;;;;;19.25;6.70;;;;;;;5.91;36.02;96936.03;10369935;28;20068;-58
2022/01/31 14:55:12;;;;;;;10.50;5.00;;;;;;;5.75;36.77;96950.56;10378164;28;20069;-58
2022/01/31 15:00:14;;;;;;;19.03;6.17;;;;;;;5.71;36.82;96945.38;10376527;28;20072;-58
2022/01/31 15:05:19;;;;;;;25.08;8.23;;;;;;;5.16;37.22;96857.59;10377501;28;20322;-58
2022/01/31 15:10:20;;;;;;;17.17;8.00;;;;;;;5.50;37.61;96928.97;10377287;28;20519;-58
2022/01/31 15:15:20;;;;;;;20.55;8.32;;;;;;;5.39;37.30;96933.22;10377616;28;20500;-58
2022/01/31 15:20:19;;;;;;;15.88;7.72;;;;;;;5.24;37.72;96926.25;10377729;28;20075;-58
2022/01/31 15:25:18;;;;;;;16.90;7.82;;;;;;;4.87;38.46;96891.66;10377110;28;20064;-58
2022/01/31 15:30:17;;;;;;;18.08;7.10;;;;;;;4.84;38.23;96925.91;10376928;28;20407;-58
2022/01/31 15:35:16;;;;;;;14.18;5.97;;;;;;;4.70;38.39;96924.94;10376871;28;20033;-58
2022/01/31 15:40:16;;;;;;;16.92;7.85;;;;;;;4.59;39.02;96932.53;10376717;28;20068;-58
2022/01/31 15:45:16;;;;;;;12.63;6.68;;;;;;;4.58;38.52;96935.97;10376221;28;20448;-58
2022/01/31 15:50:14;;;;;;;15.68;6.05;;;;;;;4.42;38.99;96908.41;10375959;28;20060;-58
2022/01/31 15:55:14;;;;;;;18.73;6.90;;;;;;;4.49;38.95;96920.47;10374960;28;20047;-58
2022/01/31 16:00:17;;;;;;;13.90;6.30;;;;;;;4.51;39.00;96929.06;10374800;28;20061;-58
2022/01/31 16:05:16;;;;;;;17.88;8.10;;;;;;;4.12;39.12;96855.03;10375067;28;20091;-58
2022/01/31 16:10:15;;;;;;;19.88;8.70;;;;;;;4.06;39.51;96851.56;10375305;28;20024;-58
2022/01/31 16:15:15;;;;;;;18.25;8.30;;;;;;;4.33;39.23;96887.78;10374839;28;20065;-59
2022/01/31 16:20:15;;;;;;;21.30;10.15;;;;;;;4.35;39.23;96886.94;10374472;28;20057;-58
2022/01/31 16:25:14;;;;;;;;;;;;;;;4.29;39.60;96872.34;10370786;28;20075;-59
2022/01/31 16:30:14;;;;;;;48.13;25.42;;;;;;;4.13;40.17;96852.50;10374688;28;19962;-59
2022/01/31 16:35:14;;;;;;;54.08;30.50;;;;;;;4.09;41.32;96843.03;10374148;28;20149;-58
2022/01/31 16:40:13;;;;;;;52.80;31.25;;;;;;;3.78;41.77;96824.78;10373549;28;20056;-59
2022/01/31 16:45:14;;;;;;;;;;;;;;;3.90;41.94;96852.25;10374428;28;20061;-58
2022/01/31 16:50:17;;;;;;;60.30;36.60;;;;;;;3.73;42.31;96852.09;10349043;28;19956;-58
2022/01/31 16:55:17;;;;;;;37.10;22.55;;;;;;;3.39;43.45;96817.47;10372712;28;20075;-58
2022/01/31 17:00:16;;;;;;;38.55;22.13;;;;;;;3.40;43.35;96825.19;10373516;28;20075;-58
2022/01/31 17:05:15;;;;;;;42.90;24.55;;;;;;;3.33;43.33;96825.97;10372674;28;20091;-58
2022/01/31 17:10:14;;;;;;;;;;;;;;;3.21;43.91;96807.84;10373079;28;20079;-58
2022/01/31 17:15:15;;;;;;;39.47;21.77;;;;;;;3.00;44.78;96793.94;10372953;28;19970;-58
2022/01/31 17:20:16;;;;;;;48.65;28.15;;;;;;;2.88;45.12;96786.06;10372347;28;20064;-58
2022/01/31 17:25:15;;;;;;;39.70;20.15;;;;;;;2.83;45.73;96769.78;10369670;28;20064;-58
2022/01/31 17:30:15;;;;;;;41.03;20.27;;;;;;;2.39;46.26;96703.44;10373832;28;20068;-58
2022/01/31 17:35:15;;;;;;;31.00;17.33;;;;;;;2.71;46.18;96744.84;10381348;28;20099;-58
2022/01/31 17:40:17;;;;;;;41.97;25.13;;;;;;;2.47;45.87;96709.53;10380773;28;20754;-58
2022/01/31 17:45:16;;;;;;;49.35;25.77;;;;;;;2.49;47.00;96748.81;10380663;28;20076;-58
2022/01/31 17:50:15;;;;;;;41.42;25.52;;;;;;;2.17;46.52;96690.31;10380746;28;20032;-59
2022/01/31 17:55:13;;;;;;;53.55;30.25;;;;;;;1.84;47.18;96619.06;10376855;28;20483;-58
2022/01/31 18:00:13;;;;;;;83.80;45.28;;;;;;;2.44;47.32;96731.66;10379722;28;20033;-58
2022/01/31 18:05:12;;;;;;;106.65;62.42;;;;;;;2.31;48.51;96738.31;10378857;28;20101;-58
2022/01/31 18:10:11;;;;;;;89.78;50.28;;;;;;;1.92;48.74;96690.78;10379043;28;20037;-58
2022/01/31 18:15:11;;;;;;;66.00;37.17;;;;;;;2.05;49.34;96718.28;10378386;28;20519;-58
2022/01/31 18:20:13;;;;;;;62.25;33.63;;;;;;;2.12;48.83;96720.13;10378086;28;20159;-58
2022/01/31 18:25:12;;;;;;;73.13;39.97;;;;;;;2.17;48.44;96721.03;10374670;28;20485;-58
2022/01/31 18:30:12;;;;;;;;;;;;;;;2.19;48.39;96709.97;10378150;28;20064;-58
2022/01/31 18:35:18;;;;;;;70.80;38.63;;;;;;;2.02;48.94;96692.69;10377651;28;19955;-58
2022/01/31 18:40:19;;;;;;;76.63;44.03;;;;;;;2.04;48.83;96702.91;10375099;28;20061;-58
2022/01/31 18:45:20;;;;;;;60.35;37.03;;;;;;;2.13;48.73;96709.03;10375841;28;20534;-58
2022/01/31 18:50:25;;;;;;;92.00;50.65;;;;;;;1.66;49.23;96629.84;10377077;28;20122;-58
2022/01/31 18:55:26;;;;;;;74.75;45.47;;;;;;;2.03;48.98;96712.28;10373065;28;20064;-58
2022/01/31 19:00:24;;;;;;;61.42;37.20;;;;;;;2.08;49.00;96699.56;10377525;28;20064;-58
2022/01/31 19:05:25;;;;;;;68.45;40.75;;;;;;;2.03;48.65;96706.31;10376717;28;20057;-58
2022/01/31 19:10:32;;;;;;;65.25;37.95;;;;;;;2.13;48.79;96706.47;10377364;28;20075;-58
2022/01/31 19:15:42;;;;;;;101.45;60.97;;;;;;;2.04;49.85;96703.75;10377219;28;20064;-58
2022/01/31 19:20:46;;;;;;;144.02;89.38;;;;;;;1.98;49.83;96693.47;10375922;28;20064;-58
2022/01/31 19:25:49;;;;;;;128.95;76.05;;;;;;;1.92;50.30;96683.13;10374307;28;20155;-58
2022/01/31 19:30:50;;;;;;;100.28;54.92;;;;;;;2.02;50.14;96684.13;10376654;28;20531;-58
2022/01/31 19:35:53;;;;;;;169.60;94.68;;;;;;;1.96;50.27;96687.44;10376483;28;20417;-58
2022/01/31 19:46:14;;;;;;;131.75;76.25;;;;;;;1.86;51.44;96673.66;10376212;28;20064;-58
2022/01/31 19:51:18;;;;;;;162.25;91.68;;;;;;;1.51;52.70;96650.09;10375848;28;20398;-58
2022/01/31 19:56:19;;;;;;;141.30;79.28;;;;;;;0.99;52.46;96555.53;10374811;28;20147;-58
2022/01/31 20:01:19;;;;;;;107.20;62.20;;;;;;;1.64;52.88;96671.59;10374101;28;20468;-58
2022/01/31 20:06:19;;;;;;;104.32;60.80;;;;;;;1.58;52.96;96666.38;10372358;28;20087;-58
2022/01/31 20:11:24;;;;;;;108.40;61.67;;;;;;;1.48;53.18;96640.66;10374853;28;20052;-58
2022/01/31 20:16:26;;;;;;;95.88;54.53;;;;;;;1.57;53.64;96646.75;10374137;28;20057;-58
2022/01/31 20:21:26;;;;;;;95.07;51.95;;;;;;;1.52;53.46;96644.13;10372666;28;20057;-58
2022/01/31 20:26:27;;;;;;;79.65;45.03;;;;;;;0.73;53.94;96519.28;10370912;28;20059;-58
2022/01/31 20:31:26;;;;;;;112.90;60.00;;;;;;;1.31;54.31;96636.94;10368400;28;20067;-58
2022/01/31 20:36:26;;;;;;;132.52;77.22;;;;;;;1.17;54.33;96611.16;10333633;28;20061;-58
2022/01/31 20:46:30;;;;;;;210.23;123.25;;;;;;;0.78;54.60;96562.78;10332923;28;20068;-58
2022/01/31 20:51:30;;;;;;;205.05;118.68;;;;;;;1.28;54.79;96640.31;10332341;28;20056;-58
2022/01/31 20:56:29;;;;;;;;;;;;;;;1.25;54.96;96639.41;10361923;28;20052;-58
2022/01/31 21:01:28;;;;;;;197.75;114.55;;;;;;;1.27;54.62;96640.28;10373129;28;19913;-58
2022/01/31 21:06:27;;;;;;;153.88;88.30;;;;;;;1.27;54.65;96641.16;10372316;28;20084;-58
2022/01/31 21:11:29;;;;;;;171.60;104.43;;;;;;;1.27;55.13;96630.94;10371996;28;20120;-58
2022/01/31 21:16:29;;;;;;;144.93;89.05;;;;;;;1.20;55.33;96633.34;10372873;28;20060;-58
2022/01/31 21:21:28;;;;;;;169.85;97.13;;;;;;;0.71;55.33;96548.19;10372486;28;20491;-58
2022/01/31 21:26:28;;;;;;;156.38;91.68;;;;;;;1.09;55.34;96611.03;10371565;28;20118;-58
2022/01/31 21:31:27;;;;;;;147.07;89.05;;;;;;;1.10;55.96;96612.75;10370669;28;20052;-58
2022/01/31 21:36:26;;;;;;;158.07;97.55;;;;;;;1.07;56.00;96588.84;10372644;28;20568;-58
2022/01/31 21:41:25;;;;;;;;;;;;;;;1.09;56.14;96605.06;10373749;28;20087;-58
2022/01/31 21:46:24;;;;;;;128.43;73.68;;;;;;;0.96;56.33;96598.00;10372033;28;20231;-58
2022/01/31 21:51:23;;;;;;;143.70;81.53;;;;;;;0.95;55.96;96586.09;10371974;28;20005;-59
2022/01/31 21:56:22;;;;;;;152.88;84.38;;;;;;;1.08;55.90;96582.91;10371917;28;20056;-58
2022/01/31 22:01:21;;;;;;;123.13;67.78;;;;;;;0.88;56.38;96562.97;10371631;28;20043;-58
2022/01/31 22:06:20;;;;;;;119.30;67.22;;;;;;;0.30;56.18;96462.38;10371787;28;20048;-58
2022/01/31 22:16:19;;;;;;;104.50;59.75;;;;;;;0.52;57.00;96514.66;10373291;28;20052;-58
2022/01/31 22:21:18;;;;;;;110.80;69.07;;;;;;;0.40;56.74;96487.22;10377835;28;20118;-58
2022/01/31 22:26:18;;;;;;;107.68;62.58;;;;;;;0.88;56.76;96551.91;10379450;28;20040;-58
2022/01/31 22:31:17;;;;;;;67.72;39.63;;;;;;;0.91;57.22;96546.84;10378878;28;20060;-58
2022/01/31 22:36:16;;;;;;;75.85;41.92;;;;;;;0.86;56.60;96551.88;10378510;28;20060;-58
2022/01/31 22:41:15;;;;;;;84.68;46.45;;;;;;;0.47;57.16;96501.84;10378594;28;20064;-58
2022/01/31 22:46:14;;;;;;;89.50;46.40;;;;;;;0.69;57.48;96540.53;10378011;28;20036;-58
2022/01/31 22:51:16;;;;;;;91.68;47.95;;;;;;;0.79;57.47;96547.50;10378125;28;20016;-58
2022/01/31 22:56:15;;;;;;;92.93;51.28;;;;;;;0.81;57.24;96553.50;10377686;28;20060;-58
2022/01/31 23:01:15;;;;;;;93.07;53.65;;;;;;;0.59;57.44;96523.28;10377352;28;20063;-58
2022/01/31 23:06:14;;;;;;;130.80;64.45;;;;;;;0.41;57.77;96506.84;10376505;28;20474;-58
2022/01/31 23:11:15;;;;;;;103.35;58.70;;;;;;;0.46;57.76;96527.34;10377617;28;20488;-58
2022/01/31 23:16:23;;;;;;;80.35;44.33;;;;;;;0.54;57.52;96537.69;10374890;28;20068;-58
2022/01/31 23:43:16;;;;;;;54.70;30.50;;;;;;;0.24;58.23;96480.13;10375766;28;20065;-58
